createdAt,value
2022-12-12T00:00:24.485Z,2.09
2022-12-12T00:04:36.138Z,2.08
2022-12-12T00:08:47.760Z,2.06
2022-12-12T00:12:59.401Z,2.11
2022-12-12T00:17:11.026Z,2.09
2022-12-12T00:21:25.384Z,2.19
2022-12-12T00:25:37.052Z,2.18
2022-12-12T00:29:53.219Z,2.22
2022-12-12T00:34:04.828Z,2.22
2022-12-12T00:38:29.612Z,2.11
2022-12-12T00:42:41.282Z,2.22
2022-12-12T00:46:52.787Z,2.21
2022-12-12T00:51:09.626Z,2.23
2022-12-12T00:55:21.473Z,2.23
2022-12-12T00:59:33.077Z,2.22
2022-12-12T01:03:45.043Z,2.23
2022-12-12T01:07:56.620Z,2.20
2022-12-12T01:12:08.643Z,2.27
2022-12-12T01:16:21.811Z,2.24
2022-12-12T01:20:33.582Z,2.23
2022-12-12T01:24:45.173Z,2.14
2022-12-12T01:28:56.657Z,2.05
2022-12-12T01:33:08.212Z,2.06
2022-12-12T01:37:19.812Z,1.90
2022-12-12T01:41:32.189Z,1.99
2022-12-12T01:45:55.967Z,2.00
2022-12-12T01:50:10.436Z,1.96
2022-12-12T01:54:30.949Z,1.91
2022-12-12T01:58:45.777Z,1.88
2022-12-12T02:02:57.435Z,1.91
2022-12-12T02:07:09.523Z,1.86
2022-12-12T02:11:21.145Z,1.84
2022-12-12T02:15:45.013Z,1.87
2022-12-12T02:20:35.874Z,1.84
2022-12-12T02:25:12.316Z,1.87
2022-12-12T02:29:50.286Z,1.81
2022-12-12T02:34:13.092Z,1.84
2022-12-12T02:38:52.674Z,1.90
2022-12-12T02:43:25.857Z,1.91
2022-12-12T02:47:45.295Z,1.93
2022-12-12T02:51:59.413Z,1.94
2022-12-12T02:56:45.047Z,1.97
2022-12-12T03:01:14.922Z,1.95
2022-12-12T03:05:54.252Z,1.98
2022-12-12T03:10:30.924Z,1.91
2022-12-12T03:14:50.103Z,1.86
2022-12-12T03:19:29.100Z,1.77
2022-12-12T03:23:46.535Z,1.62
2022-12-12T03:28:07.007Z,1.53
2022-12-12T03:32:23.679Z,1.33
2022-12-12T03:36:41.810Z,1.31
2022-12-12T03:40:58.160Z,1.20
2022-12-12T03:45:21.030Z,1.09
2022-12-12T03:49:46.784Z,0.88
2022-12-12T03:54:24.792Z,0.79
2022-12-12T03:58:50.052Z,0.63
2022-12-12T04:03:15.731Z,0.50
2022-12-12T04:07:37.624Z,0.44
2022-12-12T04:12:13.846Z,0.23
2022-12-12T04:16:36.822Z,0.19
2022-12-12T04:21:50.691Z,0.16
2022-12-12T04:26:23.595Z,0.10
2022-12-12T04:30:37.139Z,0.04
2022-12-12T04:35:04.034Z,-0.02
2022-12-12T04:39:19.535Z,-0.14
2022-12-12T04:43:37.637Z,-0.14
2022-12-12T04:47:52.072Z,-0.11
2022-12-12T04:52:11.514Z,-0.14
2022-12-12T04:56:27.438Z,-0.21
2022-12-12T05:00:59.619Z,-0.25
2022-12-12T05:05:17.525Z,-0.28
2022-12-12T05:09:29.385Z,-0.32
2022-12-12T05:13:42.910Z,-0.31
2022-12-12T05:18:07.456Z,-0.37
2022-12-12T05:22:18.945Z,-0.38
2022-12-12T05:26:32.848Z,-0.44
2022-12-12T05:30:44.399Z,-0.49
2022-12-12T05:34:55.923Z,-0.55
2022-12-12T05:39:07.403Z,-0.63
2022-12-12T05:43:18.870Z,-0.66
2022-12-12T05:47:30.385Z,-0.72
2022-12-12T05:51:41.897Z,-0.74
2022-12-12T05:55:53.464Z,-0.80
2022-12-12T06:00:05.512Z,-0.82
2022-12-12T06:04:17.038Z,-0.90
2022-12-12T06:08:30.119Z,-0.88
2022-12-12T06:12:41.810Z,-0.95
2022-12-12T06:16:53.367Z,-0.95
2022-12-12T06:21:09.693Z,-1.03
2022-12-12T06:25:21.250Z,-1.06
2022-12-12T06:29:33.039Z,-1.05
2022-12-12T06:33:44.972Z,-1.11
2022-12-12T06:37:56.575Z,-1.22
2022-12-12T06:42:08.229Z,-1.27
2022-12-12T06:46:23.333Z,-1.15
2022-12-12T06:50:38.837Z,-1.27
2022-12-12T06:54:50.400Z,-1.22
2022-12-12T06:59:02.019Z,-1.30
2022-12-12T07:03:13.687Z,-1.37
2022-12-12T07:07:25.291Z,-1.41
2022-12-12T07:11:38.885Z,-1.40
2022-12-12T07:15:50.911Z,-1.45
2022-12-12T07:20:02.661Z,-1.48
2022-12-12T07:24:15.759Z,-1.51
2022-12-12T07:28:27.457Z,-1.56
2022-12-12T07:32:39.076Z,-1.58
2022-12-12T07:36:50.729Z,-1.59
2022-12-12T07:41:07.499Z,-1.57
2022-12-12T07:45:19.655Z,-1.59
2022-12-12T07:49:31.678Z,-1.59
2022-12-12T07:53:43.356Z,-1.55
2022-12-12T07:57:55.127Z,-1.51
2022-12-12T08:02:07.024Z,-1.43
2022-12-12T08:06:19.953Z,-1.42
2022-12-12T08:10:31.658Z,-1.32
2022-12-12T08:14:43.268Z,-1.23
2022-12-12T08:18:57.259Z,-1.06
2022-12-12T08:23:08.900Z,-0.92
2022-12-12T08:27:20.476Z,-0.88
2022-12-12T08:31:32.674Z,-0.83
2022-12-12T08:35:44.443Z,-0.87
2022-12-12T08:39:56.044Z,-0.88
2022-12-12T08:44:08.575Z,-0.79
2022-12-12T08:48:20.653Z,-0.66
2022-12-12T08:52:32.285Z,-0.63
2022-12-12T08:56:44.010Z,-0.65
2022-12-12T09:00:56.666Z,-0.56
2022-12-12T09:05:09.069Z,-0.49
2022-12-12T09:09:20.612Z,-0.37
2022-12-12T09:13:32.242Z,-0.28
2022-12-12T09:17:43.919Z,-0.20
2022-12-12T09:21:55.509Z,-0.12
2022-12-12T09:26:08.992Z,0.00
2022-12-12T09:30:21.943Z,0.09
2022-12-12T09:34:34.382Z,0.10
2022-12-12T09:38:45.991Z,0.16
2022-12-12T09:42:58.859Z,0.30
2022-12-12T09:47:20.175Z,0.54
2022-12-12T09:51:31.937Z,0.70
2022-12-12T09:55:58.732Z,0.91
2022-12-12T10:00:13.279Z,1.12
2022-12-12T10:04:50.743Z,1.28
2022-12-12T10:09:21.952Z,1.69
2022-12-12T10:13:36.120Z,2.12
2022-12-12T10:17:48.569Z,2.43
2022-12-12T10:22:24.097Z,2.44
2022-12-12T10:26:35.962Z,2.36
2022-12-12T10:31:32.393Z,2.41
2022-12-12T10:36:18.977Z,2.23
2022-12-12T10:40:51.944Z,2.23
2022-12-12T10:45:47.126Z,2.20
2022-12-12T10:50:13.444Z,2.01
2022-12-12T10:54:27.628Z,2.10
2022-12-12T10:58:42.445Z,2.19
2022-12-12T11:03:00.297Z,2.18
2022-12-12T11:07:20.236Z,2.17
2022-12-12T11:11:32.264Z,2.17
2022-12-12T11:15:59.756Z,2.18
2022-12-12T11:20:18.386Z,2.06
2022-12-12T11:24:33.073Z,2.20
2022-12-12T11:28:52.002Z,2.22
2022-12-12T11:33:07.379Z,2.23
2022-12-12T11:37:21.743Z,2.25
2022-12-12T11:42:02.083Z,2.16
2022-12-12T11:46:13.574Z,2.20
2022-12-12T11:50:30.347Z,2.19
2022-12-12T11:54:41.922Z,2.15
2022-12-12T11:58:59.304Z,2.12
2022-12-12T12:03:27.073Z,2.14
2022-12-12T12:07:44.942Z,2.06
2022-12-12T12:12:07.107Z,2.01
2022-12-12T12:16:46.624Z,2.03
2022-12-12T12:21:26.882Z,1.96
2022-12-12T12:25:58.362Z,1.91
2022-12-12T12:30:24.022Z,1.93
2022-12-12T12:35:12.664Z,1.99
2022-12-12T12:39:27.536Z,1.98
2022-12-12T12:44:13.074Z,1.89
2022-12-12T12:48:37.333Z,1.88
2022-12-12T12:53:08.121Z,1.84
2022-12-12T12:57:28.016Z,1.89
2022-12-12T13:01:44.815Z,1.90
2022-12-12T13:06:03.753Z,1.83
2022-12-12T13:10:18.007Z,1.85
2022-12-12T13:14:58.369Z,1.82
2022-12-12T13:19:29.227Z,1.81
2022-12-12T13:24:00.541Z,1.84
2022-12-12T13:28:17.699Z,1.84
2022-12-12T13:32:56.049Z,1.90
2022-12-12T13:37:07.639Z,1.89
2022-12-12T13:41:19.290Z,1.86
2022-12-12T13:45:46.128Z,1.91
2022-12-12T13:50:27.285Z,1.92
2022-12-12T13:54:44.047Z,1.90
2022-12-12T13:58:56.216Z,1.86
2022-12-12T14:03:10.881Z,1.84
2022-12-12T14:07:25.492Z,1.78
2022-12-12T14:11:37.521Z,1.81
2022-12-12T14:15:50.665Z,1.78
2022-12-12T14:20:04.798Z,1.73
2022-12-12T14:24:56.999Z,1.68
2022-12-12T14:29:17.639Z,1.65
2022-12-12T14:33:41.343Z,1.58
2022-12-12T14:38:18.253Z,1.48
2022-12-12T14:43:21.413Z,1.48
2022-12-12T14:47:07.456Z,1.45
2022-12-12T14:51:34.897Z,1.37
2022-12-12T14:55:51.588Z,1.41
2022-12-12T15:00:04.463Z,1.36
2022-12-12T15:04:22.461Z,1.27
2022-12-12T15:08:33.955Z,1.14
2022-12-12T15:12:45.610Z,1.11
2022-12-12T15:17:05.338Z,1.08
2022-12-12T15:21:17.638Z,0.98
2022-12-12T15:25:32.861Z,0.84
2022-12-12T15:29:44.477Z,0.81
2022-12-12T15:33:56.042Z,0.72
2022-12-12T15:38:12.647Z,0.65
2022-12-12T15:42:24.602Z,0.51
2022-12-12T15:46:36.365Z,0.48
2022-12-12T15:51:06.758Z,0.38
2022-12-12T15:55:21.493Z,0.29
2022-12-12T15:59:33.502Z,0.20
2022-12-12T16:04:01.585Z,0.12
2022-12-12T16:08:32.200Z,0.06
2022-12-12T16:13:21.836Z,0.00
2022-12-12T16:17:33.433Z,-0.12
2022-12-12T16:21:45.149Z,-0.21
2022-12-12T16:25:57.706Z,-0.21
2022-12-12T16:30:13.316Z,-0.29
2022-12-12T16:34:25.039Z,-0.28
2022-12-12T16:38:40.049Z,-0.37
2022-12-12T16:43:07.725Z,-0.32
2022-12-12T16:47:23.981Z,-0.30
2022-12-12T16:51:35.724Z,-0.39
2022-12-12T16:55:49.717Z,-0.49
2022-12-12T17:00:01.184Z,-0.51
2022-12-12T17:04:21.447Z,-0.57
2022-12-12T17:08:33.079Z,-0.58
2022-12-12T17:12:44.915Z,-0.71
2022-12-12T17:16:56.533Z,-0.75
2022-12-12T17:21:09.094Z,-0.60
2022-12-12T17:25:22.660Z,-0.79
2022-12-12T17:29:34.216Z,-0.65
2022-12-12T17:33:51.083Z,-0.69
2022-12-12T17:38:03.436Z,-0.74
2022-12-12T17:42:15.500Z,-0.86
2022-12-12T17:46:28.647Z,-0.88
2022-12-12T17:50:41.921Z,-0.89
2022-12-12T17:55:55.297Z,-0.88
2022-12-12T17:59:25.083Z,-1.05
2022-12-12T18:03:37.255Z,-1.01
2022-12-12T18:07:48.793Z,-1.02
2022-12-12T18:12:00.367Z,-1.04
2022-12-12T18:16:12.927Z,-0.97
2022-12-12T18:20:29.528Z,-0.96
2022-12-12T18:24:42.696Z,-0.99
2022-12-12T18:28:57.034Z,-1.00
2022-12-12T18:33:09.057Z,-1.05
2022-12-12T18:37:20.996Z,-1.08
2022-12-12T18:41:33.080Z,-1.09
2022-12-12T18:45:44.657Z,-1.15
2022-12-12T18:49:56.217Z,-1.16
2022-12-12T18:54:14.325Z,-1.17
2022-12-12T18:58:26.629Z,-1.23
2022-12-12T19:02:40.361Z,-1.39
2022-12-12T19:06:52.277Z,-1.41
2022-12-12T19:11:04.211Z,-1.37
2022-12-12T19:15:17.165Z,-1.43
2022-12-12T19:19:29.304Z,-1.45
2022-12-12T19:23:41.376Z,-1.47
2022-12-12T19:27:53.122Z,-1.51
2022-12-12T19:32:05.453Z,-1.46
2022-12-12T19:36:20.142Z,-1.49
2022-12-12T19:40:31.643Z,-1.45
2022-12-12T19:44:43.696Z,-1.49
2022-12-12T19:49:00.539Z,-1.48
2022-12-12T19:53:12.104Z,-1.50
2022-12-12T19:57:26.234Z,-1.52
2022-12-12T20:01:37.942Z,-1.54
2022-12-12T20:05:59.252Z,-1.55
2022-12-12T20:10:10.896Z,-1.58
2022-12-12T20:14:25.396Z,-1.61
2022-12-12T20:18:37.809Z,-1.62
2022-12-12T20:22:49.253Z,-1.66
2022-12-12T20:27:03.719Z,-1.72
2022-12-12T20:31:18.490Z,-1.76
2022-12-12T20:35:30.070Z,-1.83
2022-12-12T20:39:41.667Z,-2.00
2022-12-12T20:43:54.959Z,-1.89
2022-12-12T20:48:07.911Z,-1.90
2022-12-12T20:52:20.457Z,-1.91
2022-12-12T20:56:32.422Z,-1.90
2022-12-12T21:00:43.918Z,-1.87
2022-12-12T21:04:55.362Z,-1.87
2022-12-12T21:09:09.330Z,-1.90
2022-12-12T21:13:21.088Z,-1.93
2022-12-12T21:17:32.615Z,-1.95
2022-12-12T21:21:44.851Z,-1.97
2022-12-12T21:25:56.395Z,-2.00
2022-12-12T21:30:08.386Z,-2.01
2022-12-12T21:34:21.934Z,-2.05
2022-12-12T21:38:33.822Z,-2.13
2022-12-12T21:42:45.409Z,-2.16
2022-12-12T21:46:57.056Z,-2.18
2022-12-12T21:51:14.521Z,-2.25
2022-12-12T21:55:26.060Z,-2.26
2022-12-12T21:59:38.659Z,-2.26
2022-12-12T22:03:50.484Z,-2.31
2022-12-12T22:08:02.185Z,-2.41
2022-12-12T22:12:13.818Z,-2.43
2022-12-12T22:16:33.392Z,-2.48
2022-12-12T22:20:44.987Z,-2.56
2022-12-12T22:24:56.558Z,-2.56
2022-12-12T22:29:13.897Z,-2.58
2022-12-12T22:33:25.525Z,-2.67
2022-12-12T22:37:37.130Z,-2.63
2022-12-12T22:41:50.663Z,-2.63
2022-12-12T22:46:04.986Z,-2.66
2022-12-12T22:50:17.867Z,-2.68
2022-12-12T22:54:31.776Z,-2.70
2022-12-12T22:58:44.293Z,-2.71
2022-12-12T23:02:58.947Z,-2.75
2022-12-12T23:07:10.888Z,-2.81
2022-12-12T23:11:24.611Z,-2.78
2022-12-12T23:15:38.686Z,-2.83
2022-12-12T23:19:50.268Z,-2.83
2022-12-12T23:24:02.004Z,-2.82
2022-12-12T23:28:14.101Z,-2.82
2022-12-12T23:32:26.027Z,-2.83
2022-12-12T23:36:38.202Z,-2.83
2022-12-12T23:40:49.872Z,-2.85
2022-12-12T23:45:01.385Z,-2.85
2022-12-12T23:49:12.877Z,-2.84
2022-12-12T23:53:24.676Z,-2.91
2022-12-12T23:57:36.248Z,-2.90
